Aérodrome :
LOGIN :

S'inscrire | Disclaimer

   EN    FR    IT 

 










Légende :    VFR   VFR Marginal   IFR   IFR Intensif   IFR Très Intensif
Visi : 
Plafond : 
>= 8 km
>= 3000ft
5 à 8 km
1000 à 3000 ft
1500m à 5 km
500 à 1000 ft
800 à 1500m
200 à 500 ft
< 800m
< 200 ft
Symboles :   Orages  Brouillard  Fortes neiges  Fortes précipitations  Vent > 20 kt
SIGMETs :   Divers  Orages  Givrage  Turbulence  Onde Orograph.  Cendres Volcan.







- Altitude de l'aérodrome : 459 ft
- Code IATA : CER
- Voir les cartes d'approche


LFRC - Cherbourg / Maupertus

DERNIER METAR :
  • 201730Z AUTO 22002KT 6000 // OVC017 02/01 Q1002

METARs EXPIRÉS :
  • 201700Z AUTO VRB02KT 5000 // BKN013 OVC024 02/01 Q1003
  • 201630Z AUTO 22005KT 5000 // BKN028 OVC035 02/00 Q1002
  • 201600Z AUTO 22005KT 4400 // SCT015 BKN021 BKN028 02/00 Q1002
  • 201530Z AUTO 23005KT 4200 // SCT017 BKN026 OVC036 02/01 Q1002
  • 201500Z AUTO 20003KT 3100 // OVC015 02/00 Q1002

TAF TAF LFRC
Valide du 20 à 15h jusqu'au 21 à 00h UTC


201400Z 2015/2024 VRB03KT 9999 BKN015
TEMPO 2015/2021 3000 SHRAGS BKN008 BKN015TCU
BECMG 2021/2024 18010KT
Pas de NOTAMs connus pour ce terrain.



MET'MAP, la Météo Aéronautique d'un coup d'oeil ! - Copyright ORBIFLY Décembre 2007 - Disclaimer

ORBIFLY MET'MAP TEAM :

Programmation & Développement : Alexandra Zaïnal
Conception & Développement : Baudouin d'Aumeries
Co-Programmation & Développement : Marc-Olivier Méhu
Soutien technique & logistique : Manuel Goepfert

Contact : metmap@orbifly.com




SOURCES & CREDITS :

   NOAA